sensor_id;sensor_type;location;lat;lon;timestamp;P1;durP1;ratioP1;P2;durP2;ratioP2
50533;SDS011;60631;49.236;8.398;2022-09-16T00:02:10;5.80;;;3.00;;
50533;SDS011;60631;49.236;8.398;2022-09-16T00:05:11;5.15;;;2.88;;
50533;SDS011;60631;49.236;8.398;2022-09-16T00:08:13;5.53;;;3.15;;
50533;SDS011;60631;49.236;8.398;2022-09-16T00:11:14;5.10;;;2.85;;
50533;SDS011;60631;49.236;8.398;2022-09-16T00:14:16;4.93;;;3.10;;
50533;SDS011;60631;49.236;8.398;2022-09-16T00:17:17;3.75;;;3.10;;
50533;SDS011;60631;49.236;8.398;2022-09-16T00:20:18;3.97;;;3.20;;
50533;SDS011;60631;49.236;8.398;2022-09-16T00:23:19;6.30;;;3.42;;
50533;SDS011;60631;49.236;8.398;2022-09-16T00:26:20;6.72;;;3.10;;
50533;SDS011;60631;49.236;8.398;2022-09-16T00:29:21;5.25;;;2.80;;
50533;SDS011;60631;49.236;8.398;2022-09-16T00:32:22;4.05;;;2.70;;
50533;SDS011;60631;49.236;8.398;2022-09-16T00:35:24;4.50;;;2.83;;
50533;SDS011;60631;49.236;8.398;2022-09-16T00:38:25;7.57;;;2.88;;
50533;SDS011;60631;49.236;8.398;2022-09-16T00:41:27;3.55;;;2.97;;
50533;SDS011;60631;49.236;8.398;2022-09-16T00:44:53;5.10;;;3.00;;
50533;SDS011;60631;49.236;8.398;2022-09-16T00:48:05;3.90;;;3.00;;
50533;SDS011;60631;49.236;8.398;2022-09-16T00:51:08;4.45;;;3.25;;
50533;SDS011;60631;49.236;8.398;2022-09-16T00:54:10;3.70;;;3.40;;
50533;SDS011;60631;49.236;8.398;2022-09-16T00:57:11;6.43;;;3.30;;
50533;SDS011;60631;49.236;8.398;2022-09-16T01:00:14;6.20;;;3.30;;
50533;SDS011;60631;49.236;8.398;2022-09-16T01:03:16;7.68;;;3.53;;
50533;SDS011;60631;49.236;8.398;2022-09-16T01:06:17;8.25;;;3.55;;
50533;SDS011;60631;49.236;8.398;2022-09-16T01:09:20;6.82;;;3.22;;
50533;SDS011;60631;49.236;8.398;2022-09-16T01:12:22;3.50;;;2.70;;
50533;SDS011;60631;49.236;8.398;2022-09-16T01:15:25;4.43;;;3.20;;
50533;SDS011;60631;49.236;8.398;2022-09-16T01:18:42;7.65;;;3.42;;
50533;SDS011;60631;49.236;8.398;2022-09-16T01:22:09;3.83;;;3.33;;
50533;SDS011;60631;49.236;8.398;2022-09-16T01:25:30;3.67;;;3.05;;
50533;SDS011;60631;49.236;8.398;2022-09-16T01:32:05;6.82;;;4.00;;
50533;SDS011;60631;49.236;8.398;2022-09-16T01:35:16;6.72;;;3.60;;
50533;SDS011;60631;49.236;8.398;2022-09-16T01:38:38;4.38;;;3.78;;
50533;SDS011;60631;49.236;8.398;2022-09-16T01:55:00;4.30;;;3.53;;
50533;SDS011;60631;49.236;8.398;2022-09-16T02:01:21;7.63;;;3.75;;
50533;SDS011;60631;49.236;8.398;2022-09-16T02:04:30;7.15;;;4.85;;
50533;SDS011;60631;49.236;8.398;2022-09-16T02:07:34;5.05;;;4.45;;
50533;SDS011;60631;49.236;8.398;2022-09-16T02:10:42;5.30;;;4.80;;
50533;SDS011;60631;49.236;8.398;2022-09-16T02:14:02;7.43;;;4.55;;
50533;SDS011;60631;49.236;8.398;2022-09-16T02:17:06;7.60;;;4.78;;
50533;SDS011;60631;49.236;8.398;2022-09-16T02:20:11;5.40;;;4.60;;
50533;SDS011;60631;49.236;8.398;2022-09-16T02:23:16;6.70;;;4.82;;
50533;SDS011;60631;49.236;8.398;2022-09-16T02:26:21;6.45;;;4.75;;
50533;SDS011;60631;49.236;8.398;2022-09-16T02:32:26;7.35;;;3.90;;
50533;SDS011;60631;49.236;8.398;2022-09-16T02:35:28;7.20;;;4.32;;
50533;SDS011;60631;49.236;8.398;2022-09-16T02:38:34;4.85;;;4.18;;
50533;SDS011;60631;49.236;8.398;2022-09-16T02:41:40;4.97;;;4.05;;
50533;SDS011;60631;49.236;8.398;2022-09-16T02:44:41;4.35;;;3.90;;
50533;SDS011;60631;49.236;8.398;2022-09-16T02:50:52;5.25;;;4.07;;
50533;SDS011;60631;49.236;8.398;2022-09-16T02:57:17;6.88;;;4.47;;
50533;SDS011;60631;49.236;8.398;2022-09-16T03:00:18;6.63;;;4.55;;
50533;SDS011;60631;49.236;8.398;2022-09-16T03:03:20;5.93;;;4.28;;
50533;SDS011;60631;49.236;8.398;2022-09-16T03:06:22;7.63;;;4.90;;
50533;SDS011;60631;49.236;8.398;2022-09-16T03:09:24;7.57;;;5.45;;
50533;SDS011;60631;49.236;8.398;2022-09-16T03:15:45;7.68;;;4.97;;
50533;SDS011;60631;49.236;8.398;2022-09-16T03:22:22;9.15;;;5.28;;
50533;SDS011;60631;49.236;8.398;2022-09-16T03:26:04;6.07;;;4.63;;
50533;SDS011;60631;49.236;8.398;2022-09-16T03:32:53;7.07;;;5.38;;
50533;SDS011;60631;49.236;8.398;2022-09-16T03:35:57;5.70;;;5.10;;
50533;SDS011;60631;49.236;8.398;2022-09-16T03:38:59;9.35;;;4.95;;
50533;SDS011;60631;49.236;8.398;2022-09-16T03:42:02;6.07;;;4.35;;
50533;SDS011;60631;49.236;8.398;2022-09-16T03:45:04;9.57;;;4.30;;
50533;SDS011;60631;49.236;8.398;2022-09-16T03:48:06;6.70;;;4.60;;
50533;SDS011;60631;49.236;8.398;2022-09-16T03:51:07;5.82;;;4.53;;
50533;SDS011;60631;49.236;8.398;2022-09-16T03:54:08;7.47;;;4.68;;
50533;SDS011;60631;49.236;8.398;2022-09-16T03:57:09;4.28;;;3.88;;
50533;SDS011;60631;49.236;8.398;2022-09-16T04:00:10;5.55;;;3.85;;
50533;SDS011;60631;49.236;8.398;2022-09-16T04:03:12;4.50;;;4.10;;
50533;SDS011;60631;49.236;8.398;2022-09-16T04:06:13;4.88;;;4.22;;
50533;SDS011;60631;49.236;8.398;2022-09-16T04:09:14;6.13;;;4.57;;
50533;SDS011;60631;49.236;8.398;2022-09-16T04:12:16;4.60;;;4.10;;
50533;SDS011;60631;49.236;8.398;2022-09-16T04:15:17;6.07;;;3.92;;
50533;SDS011;60631;49.236;8.398;2022-09-16T04:18:18;9.95;;;4.60;;
50533;SDS011;60631;49.236;8.398;2022-09-16T04:21:19;8.00;;;4.10;;
50533;SDS011;60631;49.236;8.398;2022-09-16T04:24:20;7.43;;;4.45;;
50533;SDS011;60631;49.236;8.398;2022-09-16T04:27:21;4.30;;;3.90;;
50533;SDS011;60631;49.236;8.398;2022-09-16T04:30:22;4.60;;;4.20;;
50533;SDS011;60631;49.236;8.398;2022-09-16T04:33:26;7.85;;;4.50;;
50533;SDS011;60631;49.236;8.398;2022-09-16T04:36:28;8.73;;;5.00;;
50533;SDS011;60631;49.236;8.398;2022-09-16T04:39:29;8.82;;;4.55;;
50533;SDS011;60631;49.236;8.398;2022-09-16T04:42:30;6.63;;;4.10;;
50533;SDS011;60631;49.236;8.398;2022-09-16T04:45:31;6.40;;;4.70;;
50533;SDS011;60631;49.236;8.398;2022-09-16T04:48:32;5.05;;;4.47;;
50533;SDS011;60631;49.236;8.398;2022-09-16T04:51:33;6.60;;;4.30;;
50533;SDS011;60631;49.236;8.398;2022-09-16T04:54:34;5.22;;;4.07;;
50533;SDS011;60631;49.236;8.398;2022-09-16T04:57:35;7.05;;;3.95;;
50533;SDS011;60631;49.236;8.398;2022-09-16T05:00:37;5.65;;;3.80;;
50533;SDS011;60631;49.236;8.398;2022-09-16T05:03:38;4.95;;;4.53;;
50533;SDS011;60631;49.236;8.398;2022-09-16T05:06:43;7.05;;;4.60;;
50533;SDS011;60631;49.236;8.398;2022-09-16T05:09:44;4.82;;;4.32;;
50533;SDS011;60631;49.236;8.398;2022-09-16T05:12:51;6.10;;;4.70;;
50533;SDS011;60631;49.236;8.398;2022-09-16T05:15:52;5.43;;;3.97;;
50533;SDS011;60631;49.236;8.398;2022-09-16T05:18:55;7.68;;;4.55;;
50533;SDS011;60631;49.236;8.398;2022-09-16T05:21:57;6.50;;;5.00;;
50533;SDS011;60631;49.236;8.398;2022-09-16T05:24:58;9.13;;;5.15;;
50533;SDS011;60631;49.236;8.398;2022-09-16T05:27:59;7.28;;;4.80;;
50533;SDS011;60631;49.236;8.398;2022-09-16T05:31:10;4.95;;;3.83;;
50533;SDS011;60631;49.236;8.398;2022-09-16T05:34:16;5.95;;;4.38;;
50533;SDS011;60631;49.236;8.398;2022-09-16T05:37:19;7.17;;;4.70;;
50533;SDS011;60631;49.236;8.398;2022-09-16T05:40:20;7.55;;;4.63;;
50533;SDS011;60631;49.236;8.398;2022-09-16T05:43:22;5.45;;;4.28;;
50533;SDS011;60631;49.236;8.398;2022-09-16T05:46:23;5.20;;;4.30;;
50533;SDS011;60631;49.236;8.398;2022-09-16T05:49:24;6.20;;;4.30;;
50533;SDS011;60631;49.236;8.398;2022-09-16T05:52:25;6.05;;;4.30;;
50533;SDS011;60631;49.236;8.398;2022-09-16T05:55:26;4.53;;;4.10;;
50533;SDS011;60631;49.236;8.398;2022-09-16T05:58:28;7.43;;;4.78;;
50533;SDS011;60631;49.236;8.398;2022-09-16T06:01:31;6.20;;;4.60;;
50533;SDS011;60631;49.236;8.398;2022-09-16T06:04:33;7.93;;;4.40;;
50533;SDS011;60631;49.236;8.398;2022-09-16T06:07:35;8.32;;;4.78;;
50533;SDS011;60631;49.236;8.398;2022-09-16T06:10:39;5.38;;;4.70;;
50533;SDS011;60631;49.236;8.398;2022-09-16T06:13:40;6.10;;;4.97;;
50533;SDS011;60631;49.236;8.398;2022-09-16T06:16:41;6.20;;;4.43;;
50533;SDS011;60631;49.236;8.398;2022-09-16T06:19:43;8.80;;;4.95;;
50533;SDS011;60631;49.236;8.398;2022-09-16T06:22:44;5.53;;;3.95;;
50533;SDS011;60631;49.236;8.398;2022-09-16T06:25:45;6.15;;;4.95;;
50533;SDS011;60631;49.236;8.398;2022-09-16T06:28:46;5.47;;;4.40;;
50533;SDS011;60631;49.236;8.398;2022-09-16T06:31:48;7.72;;;4.80;;
50533;SDS011;60631;49.236;8.398;2022-09-16T06:34:49;6.47;;;4.53;;
50533;SDS011;60631;49.236;8.398;2022-09-16T06:37:50;5.07;;;4.35;;
50533;SDS011;60631;49.236;8.398;2022-09-16T06:40:51;6.50;;;4.70;;
50533;SDS011;60631;49.236;8.398;2022-09-16T06:43:52;7.30;;;5.05;;
50533;SDS011;60631;49.236;8.398;2022-09-16T06:46:53;7.78;;;5.10;;
50533;SDS011;60631;49.236;8.398;2022-09-16T06:49:54;6.88;;;5.47;;
50533;SDS011;60631;49.236;8.398;2022-09-16T06:52:56;5.85;;;4.63;;
50533;SDS011;60631;49.236;8.398;2022-09-16T06:56:00;6.18;;;4.65;;
50533;SDS011;60631;49.236;8.398;2022-09-16T06:59:05;6.38;;;4.10;;
50533;SDS011;60631;49.236;8.398;2022-09-16T07:02:08;6.57;;;4.15;;
50533;SDS011;60631;49.236;8.398;2022-09-16T07:05:09;6.22;;;4.30;;
50533;SDS011;60631;49.236;8.398;2022-09-16T07:08:11;6.57;;;4.72;;
50533;SDS011;60631;49.236;8.398;2022-09-16T07:11:14;6.13;;;4.10;;
50533;SDS011;60631;49.236;8.398;2022-09-16T07:14:17;5.25;;;3.92;;
50533;SDS011;60631;49.236;8.398;2022-09-16T07:17:18;5.78;;;4.43;;
50533;SDS011;60631;49.236;8.398;2022-09-16T07:20:19;5.47;;;4.50;;
50533;SDS011;60631;49.236;8.398;2022-09-16T07:23:20;4.70;;;3.45;;
50533;SDS011;60631;49.236;8.398;2022-09-16T07:26:22;4.45;;;3.45;;
50533;SDS011;60631;49.236;8.398;2022-09-16T07:29:25;4.78;;;3.13;;
50533;SDS011;60631;49.236;8.398;2022-09-16T07:32:27;4.70;;;3.67;;
50533;SDS011;60631;49.236;8.398;2022-09-16T07:35:28;4.85;;;3.60;;
50533;SDS011;60631;49.236;8.398;2022-09-16T07:38:29;4.72;;;3.20;;
50533;SDS011;60631;49.236;8.398;2022-09-16T07:41:32;5.28;;;3.63;;
50533;SDS011;60631;49.236;8.398;2022-09-16T07:44:34;3.92;;;3.30;;
50533;SDS011;60631;49.236;8.398;2022-09-16T07:47:35;4.60;;;3.28;;
50533;SDS011;60631;49.236;8.398;2022-09-16T07:50:36;5.25;;;3.20;;
50533;SDS011;60631;49.236;8.398;2022-09-16T07:53:37;3.40;;;3.00;;
50533;SDS011;60631;49.236;8.398;2022-09-16T07:56:39;7.45;;;3.45;;
50533;SDS011;60631;49.236;8.398;2022-09-16T07:59:40;4.32;;;3.10;;
50533;SDS011;60631;49.236;8.398;2022-09-16T08:02:41;4.28;;;3.00;;
50533;SDS011;60631;49.236;8.398;2022-09-16T08:05:42;3.70;;;2.97;;
50533;SDS011;60631;49.236;8.398;2022-09-16T08:08:43;3.45;;;2.60;;
50533;SDS011;60631;49.236;8.398;2022-09-16T08:11:45;3.10;;;2.80;;
50533;SDS011;60631;49.236;8.398;2022-09-16T08:14:46;5.53;;;2.80;;
50533;SDS011;60631;49.236;8.398;2022-09-16T08:17:47;5.47;;;2.80;;
50533;SDS011;60631;49.236;8.398;2022-09-16T08:20:48;3.42;;;2.85;;
50533;SDS011;60631;49.236;8.398;2022-09-16T08:23:49;2.88;;;2.53;;
50533;SDS011;60631;49.236;8.398;2022-09-16T08:26:50;4.35;;;2.67;;
50533;SDS011;60631;49.236;8.398;2022-09-16T08:29:51;5.00;;;2.65;;
50533;SDS011;60631;49.236;8.398;2022-09-16T08:32:58;2.92;;;2.65;;
50533;SDS011;60631;49.236;8.398;2022-09-16T08:36:00;2.88;;;2.60;;
50533;SDS011;60631;49.236;8.398;2022-09-16T08:39:02;4.22;;;2.60;;
50533;SDS011;60631;49.236;8.398;2022-09-16T08:42:07;3.13;;;2.90;;
50533;SDS011;60631;49.236;8.398;2022-09-16T08:52:11;3.30;;;2.90;;
50533;SDS011;60631;49.236;8.398;2022-09-16T08:55:19;5.35;;;3.08;;
50533;SDS011;60631;49.236;8.398;2022-09-16T08:58:25;4.10;;;2.95;;
50533;SDS011;60631;49.236;8.398;2022-09-16T09:04:41;5.60;;;2.53;;
50533;SDS011;60631;49.236;8.398;2022-09-16T09:10:58;3.25;;;1.90;;
50533;SDS011;60631;49.236;8.398;2022-09-16T09:17:34;4.40;;;1.95;;
50533;SDS011;60631;49.236;8.398;2022-09-16T09:27:28;4.03;;;1.95;;
50533;SDS011;60631;49.236;8.398;2022-09-16T09:30:31;4.35;;;1.90;;
50533;SDS011;60631;49.236;8.398;2022-09-16T09:33:37;5.53;;;2.42;;
50533;SDS011;60631;49.236;8.398;2022-09-16T09:49:54;3.30;;;1.50;;
50533;SDS011;60631;49.236;8.398;2022-09-16T09:56:56;2.72;;;1.58;;
50533;SDS011;60631;49.236;8.398;2022-09-16T10:03:12;2.60;;;1.30;;
50533;SDS011;60631;49.236;8.398;2022-09-16T10:06:14;1.93;;;1.00;;
50533;SDS011;60631;49.236;8.398;2022-09-16T10:09:17;2.78;;;1.40;;
50533;SDS011;60631;49.236;8.398;2022-09-16T10:12:32;3.55;;;1.50;;
50533;SDS011;60631;49.236;8.398;2022-09-16T10:15:34;3.65;;;1.65;;
50533;SDS011;60631;49.236;8.398;2022-09-16T10:18:36;3.72;;;1.38;;
50533;SDS011;60631;49.236;8.398;2022-09-16T10:21:39;2.03;;;1.20;;
50533;SDS011;60631;49.236;8.398;2022-09-16T10:24:52;3.58;;;1.25;;
50533;SDS011;60631;49.236;8.398;2022-09-16T10:28:05;1.65;;;1.20;;
50533;SDS011;60631;49.236;8.398;2022-09-16T10:31:17;1.48;;;0.90;;
50533;SDS011;60631;49.236;8.398;2022-09-16T10:37:36;4.40;;;0.70;;
50533;SDS011;60631;49.236;8.398;2022-09-16T10:40:37;1.27;;;0.60;;
50533;SDS011;60631;49.236;8.398;2022-09-16T10:43:44;2.38;;;0.90;;
50533;SDS011;60631;49.236;8.398;2022-09-16T10:46:55;2.60;;;0.85;;
50533;SDS011;60631;49.236;8.398;2022-09-16T10:49:59;2.08;;;0.80;;
50533;SDS011;60631;49.236;8.398;2022-09-16T10:53:18;2.85;;;0.70;;
50533;SDS011;60631;49.236;8.398;2022-09-16T10:56:22;1.48;;;0.70;;
50533;SDS011;60631;49.236;8.398;2022-09-16T10:59:31;3.22;;;0.93;;
50533;SDS011;60631;49.236;8.398;2022-09-16T11:02:42;1.75;;;0.70;;
50533;SDS011;60631;49.236;8.398;2022-09-16T11:15:31;2.35;;;0.90;;
50533;SDS011;60631;49.236;8.398;2022-09-16T11:31:51;1.45;;;0.75;;
50533;SDS011;60631;49.236;8.398;2022-09-16T11:48:52;1.30;;;0.90;;
50533;SDS011;60631;49.236;8.398;2022-09-16T12:08:12;1.48;;;0.80;;
50533;SDS011;60631;49.236;8.398;2022-09-16T12:11:42;2.45;;;0.80;;
50533;SDS011;60631;49.236;8.398;2022-09-16T12:14:47;1.85;;;0.80;;
50533;SDS011;60631;49.236;8.398;2022-09-16T12:17:52;1.95;;;0.75;;
50533;SDS011;60631;49.236;8.398;2022-09-16T12:21:09;1.70;;;0.85;;
50533;SDS011;60631;49.236;8.398;2022-09-16T12:24:16;1.95;;;0.70;;
50533;SDS011;60631;49.236;8.398;2022-09-16T12:27:25;1.27;;;0.65;;
50533;SDS011;60631;49.236;8.398;2022-09-16T12:30:37;3.83;;;0.93;;
50533;SDS011;60631;49.236;8.398;2022-09-16T12:33:43;0.75;;;0.60;;
50533;SDS011;60631;49.236;8.398;2022-09-16T12:40:26;2.40;;;0.80;;
50533;SDS011;60631;49.236;8.398;2022-09-16T12:57:29;3.63;;;0.93;;
50533;SDS011;60631;49.236;8.398;2022-09-16T13:00:22;2.70;;;0.95;;
50533;SDS011;60631;49.236;8.398;2022-09-16T13:03:27;1.23;;;1.10;;
50533;SDS011;60631;49.236;8.398;2022-09-16T13:06:34;4.32;;;1.20;;
50533;SDS011;60631;49.236;8.398;2022-09-16T13:09:37;3.65;;;0.90;;
50533;SDS011;60631;49.236;8.398;2022-09-16T13:12:40;1.80;;;0.73;;
50533;SDS011;60631;49.236;8.398;2022-09-16T13:15:41;3.58;;;0.80;;
50533;SDS011;60631;49.236;8.398;2022-09-16T13:18:45;1.65;;;0.80;;
50533;SDS011;60631;49.236;8.398;2022-09-16T13:21:53;2.42;;;0.75;;
50533;SDS011;60631;49.236;8.398;2022-09-16T13:24:59;2.97;;;1.13;;
50533;SDS011;60631;49.236;8.398;2022-09-16T13:34:44;2.55;;;0.75;;
50533;SDS011;60631;49.236;8.398;2022-09-16T13:37:45;1.25;;;0.60;;
50533;SDS011;60631;49.236;8.398;2022-09-16T13:44:01;0.90;;;0.57;;
50533;SDS011;60631;49.236;8.398;2022-09-16T13:47:28;2.25;;;0.70;;
50533;SDS011;60631;49.236;8.398;2022-09-16T13:50:31;2.35;;;0.85;;
50533;SDS011;60631;49.236;8.398;2022-09-16T13:53:35;1.65;;;0.80;;
50533;SDS011;60631;49.236;8.398;2022-09-16T13:56:49;2.53;;;0.77;;
50533;SDS011;60631;49.236;8.398;2022-09-16T14:06:40;1.88;;;0.60;;
50533;SDS011;60631;49.236;8.398;2022-09-16T14:09:46;1.77;;;0.98;;
50533;SDS011;60631;49.236;8.398;2022-09-16T14:12:54;2.10;;;0.52;;
50533;SDS011;60631;49.236;8.398;2022-09-16T14:15:59;1.55;;;0.75;;
50533;SDS011;60631;49.236;8.398;2022-09-16T14:19:03;1.23;;;0.57;;
50533;SDS011;60631;49.236;8.398;2022-09-16T14:22:19;1.42;;;0.60;;
50533;SDS011;60631;49.236;8.398;2022-09-16T14:25:28;1.38;;;0.55;;
50533;SDS011;60631;49.236;8.398;2022-09-16T14:28:33;1.88;;;0.80;;
50533;SDS011;60631;49.236;8.398;2022-09-16T14:31:34;1.92;;;0.60;;
50533;SDS011;60631;49.236;8.398;2022-09-16T14:34:36;1.00;;;0.60;;
50533;SDS011;60631;49.236;8.398;2022-09-16T14:37:37;1.02;;;0.60;;
50533;SDS011;60631;49.236;8.398;2022-09-16T14:40:39;0.77;;;0.50;;
50533;SDS011;60631;49.236;8.398;2022-09-16T14:43:40;1.40;;;0.60;;
50533;SDS011;60631;49.236;8.398;2022-09-16T14:46:42;1.75;;;0.80;;
50533;SDS011;60631;49.236;8.398;2022-09-16T14:49:45;3.60;;;0.70;;
50533;SDS011;60631;49.236;8.398;2022-09-16T14:53:00;1.08;;;0.50;;
50533;SDS011;60631;49.236;8.398;2022-09-16T14:56:03;1.63;;;0.70;;
50533;SDS011;60631;49.236;8.398;2022-09-16T14:59:04;0.50;;;0.50;;
50533;SDS011;60631;49.236;8.398;2022-09-16T15:05:36;0.93;;;0.50;;
50533;SDS011;60631;49.236;8.398;2022-09-16T15:08:43;1.65;;;0.60;;
50533;SDS011;60631;49.236;8.398;2022-09-16T15:11:49;0.68;;;0.47;;
50533;SDS011;60631;49.236;8.398;2022-09-16T15:14:55;0.98;;;0.70;;
50533;SDS011;60631;49.236;8.398;2022-09-16T15:17:58;0.80;;;0.57;;
50533;SDS011;60631;49.236;8.398;2022-09-16T15:21:08;2.30;;;0.70;;
50533;SDS011;60631;49.236;8.398;2022-09-16T15:24:20;1.80;;;0.60;;
50533;SDS011;60631;49.236;8.398;2022-09-16T15:27:25;1.88;;;0.70;;
50533;SDS011;60631;49.236;8.398;2022-09-16T15:30:28;2.08;;;0.77;;
50533;SDS011;60631;49.236;8.398;2022-09-16T15:33:34;0.70;;;0.52;;
50533;SDS011;60631;49.236;8.398;2022-09-16T15:36:37;0.93;;;0.55;;
50533;SDS011;60631;49.236;8.398;2022-09-16T15:39:40;0.77;;;0.55;;
50533;SDS011;60631;49.236;8.398;2022-09-16T15:42:41;1.92;;;0.60;;
50533;SDS011;60631;49.236;8.398;2022-09-16T15:45:42;1.50;;;0.60;;
50533;SDS011;60631;49.236;8.398;2022-09-16T15:48:51;0.80;;;0.40;;
50533;SDS011;60631;49.236;8.398;2022-09-16T15:51:53;1.20;;;0.50;;
50533;SDS011;60631;49.236;8.398;2022-09-16T15:54:58;0.50;;;0.40;;
50533;SDS011;60631;49.236;8.398;2022-09-16T15:58:14;0.55;;;0.40;;
50533;SDS011;60631;49.236;8.398;2022-09-16T16:01:44;0.60;;;0.50;;
50533;SDS011;60631;49.236;8.398;2022-09-16T16:04:47;1.30;;;0.77;;
50533;SDS011;60631;49.236;8.398;2022-09-16T16:07:52;1.75;;;0.52;;
50533;SDS011;60631;49.236;8.398;2022-09-16T16:11:07;0.90;;;0.50;;
50533;SDS011;60631;49.236;8.398;2022-09-16T16:14:09;0.70;;;0.55;;
50533;SDS011;60631;49.236;8.398;2022-09-16T16:17:11;1.50;;;0.50;;
50533;SDS011;60631;49.236;8.398;2022-09-16T16:20:14;0.90;;;0.40;;
50533;SDS011;60631;49.236;8.398;2022-09-16T16:23:16;0.93;;;0.43;;
50533;SDS011;60631;49.236;8.398;2022-09-16T16:26:17;1.10;;;0.52;;
50533;SDS011;60631;49.236;8.398;2022-09-16T16:29:19;0.73;;;0.47;;
50533;SDS011;60631;49.236;8.398;2022-09-16T16:32:20;7.70;;;0.80;;
50533;SDS011;60631;49.236;8.398;2022-09-16T16:35:21;1.70;;;0.50;;
50533;SDS011;60631;49.236;8.398;2022-09-16T16:38:22;2.10;;;0.40;;
50533;SDS011;60631;49.236;8.398;2022-09-16T16:41:23;0.60;;;0.40;;
50533;SDS011;60631;49.236;8.398;2022-09-16T16:44:24;0.43;;;0.30;;
50533;SDS011;60631;49.236;8.398;2022-09-16T16:47:26;0.40;;;0.40;;
50533;SDS011;60631;49.236;8.398;2022-09-16T16:50:27;0.30;;;0.20;;
50533;SDS011;60631;49.236;8.398;2022-09-16T16:53:28;0.63;;;0.30;;
50533;SDS011;60631;49.236;8.398;2022-09-16T16:56:29;1.42;;;0.32;;
50533;SDS011;60631;49.236;8.398;2022-09-16T16:59:30;0.35;;;0.35;;
50533;SDS011;60631;49.236;8.398;2022-09-16T17:02:32;0.77;;;0.35;;
50533;SDS011;60631;49.236;8.398;2022-09-16T17:05:33;0.52;;;0.40;;
50533;SDS011;60631;49.236;8.398;2022-09-16T17:08:34;2.33;;;0.50;;
50533;SDS011;60631;49.236;8.398;2022-09-16T17:11:35;0.50;;;0.30;;
50533;SDS011;60631;49.236;8.398;2022-09-16T17:14:37;0.77;;;0.30;;
50533;SDS011;60631;49.236;8.398;2022-09-16T17:17:38;0.75;;;0.20;;
50533;SDS011;60631;49.236;8.398;2022-09-16T17:20:40;2.05;;;0.30;;
50533;SDS011;60631;49.236;8.398;2022-09-16T17:23:41;0.20;;;0.20;;
50533;SDS011;60631;49.236;8.398;2022-09-16T17:26:43;0.43;;;0.20;;
50533;SDS011;60631;49.236;8.398;2022-09-16T17:29:44;0.40;;;0.28;;
50533;SDS011;60631;49.236;8.398;2022-09-16T17:32:45;0.10;;;0.10;;
50533;SDS011;60631;49.236;8.398;2022-09-16T17:35:46;0.10;;;0.10;;
50533;SDS011;60631;49.236;8.398;2022-09-16T17:38:47;0.95;;;0.28;;
50533;SDS011;60631;49.236;8.398;2022-09-16T17:41:49;1.02;;;0.28;;
50533;SDS011;60631;49.236;8.398;2022-09-16T17:44:50;0.95;;;0.32;;
50533;SDS011;60631;49.236;8.398;2022-09-16T17:47:51;0.32;;;0.10;;
50533;SDS011;60631;49.236;8.398;2022-09-16T17:50:52;0.20;;;0.20;;
50533;SDS011;60631;49.236;8.398;2022-09-16T17:53:54;0.75;;;0.20;;
50533;SDS011;60631;49.236;8.398;2022-09-16T17:56:55;0.32;;;0.30;;
50533;SDS011;60631;49.236;8.398;2022-09-16T17:59:56;0.20;;;0.20;;
50533;SDS011;60631;49.236;8.398;2022-09-16T18:02:57;0.30;;;0.30;;
50533;SDS011;60631;49.236;8.398;2022-09-16T18:06:05;0.35;;;0.35;;
50533;SDS011;60631;49.236;8.398;2022-09-16T18:09:12;0.20;;;0.20;;
50533;SDS011;60631;49.236;8.398;2022-09-16T18:12:15;1.55;;;0.35;;
50533;SDS011;60631;49.236;8.398;2022-09-16T18:15:16;0.73;;;0.30;;
50533;SDS011;60631;49.236;8.398;2022-09-16T18:18:17;0.50;;;0.50;;
50533;SDS011;60631;49.236;8.398;2022-09-16T18:21:20;0.55;;;0.30;;
50533;SDS011;60631;49.236;8.398;2022-09-16T18:24:23;1.35;;;0.30;;
50533;SDS011;60631;49.236;8.398;2022-09-16T18:27:24;1.33;;;0.55;;
50533;SDS011;60631;49.236;8.398;2022-09-16T18:30:25;0.68;;;0.50;;
50533;SDS011;60631;49.236;8.398;2022-09-16T18:33:26;0.55;;;0.47;;
50533;SDS011;60631;49.236;8.398;2022-09-16T18:36:27;0.95;;;0.30;;
50533;SDS011;60631;49.236;8.398;2022-09-16T18:39:29;0.93;;;0.50;;
50533;SDS011;60631;49.236;8.398;2022-09-16T18:42:30;0.70;;;0.32;;
50533;SDS011;60631;49.236;8.398;2022-09-16T18:45:31;0.40;;;0.40;;
50533;SDS011;60631;49.236;8.398;2022-09-16T18:48:33;0.85;;;0.40;;
50533;SDS011;60631;49.236;8.398;2022-09-16T18:51:34;1.35;;;0.30;;
50533;SDS011;60631;49.236;8.398;2022-09-16T18:54:36;0.30;;;0.30;;
50533;SDS011;60631;49.236;8.398;2022-09-16T18:57:37;0.43;;;0.30;;
50533;SDS011;60631;49.236;8.398;2022-09-16T19:00:38;0.50;;;0.30;;
50533;SDS011;60631;49.236;8.398;2022-09-16T19:03:40;0.60;;;0.40;;
50533;SDS011;60631;49.236;8.398;2022-09-16T19:06:44;0.68;;;0.47;;
50533;SDS011;60631;49.236;8.398;2022-09-16T19:09:46;0.63;;;0.52;;
50533;SDS011;60631;49.236;8.398;2022-09-16T19:12:48;0.82;;;0.50;;
50533;SDS011;60631;49.236;8.398;2022-09-16T19:15:49;0.50;;;0.50;;
50533;SDS011;60631;49.236;8.398;2022-09-16T19:18:55;0.35;;;0.30;;
50533;SDS011;60631;49.236;8.398;2022-09-16T19:21:56;1.33;;;0.50;;
50533;SDS011;60631;49.236;8.398;2022-09-16T19:24:58;0.40;;;0.40;;
50533;SDS011;60631;49.236;8.398;2022-09-16T19:27:59;0.57;;;0.50;;
50533;SDS011;60631;49.236;8.398;2022-09-16T19:31:04;0.82;;;0.68;;
50533;SDS011;60631;49.236;8.398;2022-09-16T19:34:07;0.40;;;0.40;;
50533;SDS011;60631;49.236;8.398;2022-09-16T19:37:08;0.40;;;0.40;;
50533;SDS011;60631;49.236;8.398;2022-09-16T19:40:09;0.77;;;0.50;;
50533;SDS011;60631;49.236;8.398;2022-09-16T19:43:11;0.50;;;0.50;;
50533;SDS011;60631;49.236;8.398;2022-09-16T19:46:16;0.90;;;0.60;;
50533;SDS011;60631;49.236;8.398;2022-09-16T19:49:18;0.82;;;0.45;;
50533;SDS011;60631;49.236;8.398;2022-09-16T19:52:20;1.63;;;0.70;;
50533;SDS011;60631;49.236;8.398;2022-09-16T19:55:21;2.35;;;0.70;;
50533;SDS011;60631;49.236;8.398;2022-09-16T19:58:22;0.70;;;0.70;;
50533;SDS011;60631;49.236;8.398;2022-09-16T20:01:25;1.05;;;0.68;;
50533;SDS011;60631;49.236;8.398;2022-09-16T20:04:30;1.08;;;0.50;;
50533;SDS011;60631;49.236;8.398;2022-09-16T20:07:31;0.80;;;0.80;;
50533;SDS011;60631;49.236;8.398;2022-09-16T20:10:32;1.17;;;0.85;;
50533;SDS011;60631;49.236;8.398;2022-09-16T20:13:34;0.90;;;0.70;;
50533;SDS011;60631;49.236;8.398;2022-09-16T20:16:36;1.08;;;0.60;;
50533;SDS011;60631;49.236;8.398;2022-09-16T20:19:38;0.70;;;0.50;;
50533;SDS011;60631;49.236;8.398;2022-09-16T20:22:39;1.23;;;0.70;;
50533;SDS011;60631;49.236;8.398;2022-09-16T20:25:40;0.85;;;0.68;;
50533;SDS011;60631;49.236;8.398;2022-09-16T20:28:41;0.60;;;0.60;;
50533;SDS011;60631;49.236;8.398;2022-09-16T20:31:42;1.02;;;0.70;;
50533;SDS011;60631;49.236;8.398;2022-09-16T20:34:44;1.17;;;0.70;;
50533;SDS011;60631;49.236;8.398;2022-09-16T20:37:45;1.63;;;0.82;;
50533;SDS011;60631;49.236;8.398;2022-09-16T20:40:46;0.50;;;0.50;;
50533;SDS011;60631;49.236;8.398;2022-09-16T20:43:48;0.52;;;0.50;;
50533;SDS011;60631;49.236;8.398;2022-09-16T20:46:49;1.10;;;0.70;;
50533;SDS011;60631;49.236;8.398;2022-09-16T20:49:50;2.05;;;0.70;;
50533;SDS011;60631;49.236;8.398;2022-09-16T20:52:51;2.00;;;0.60;;
50533;SDS011;60631;49.236;8.398;2022-09-16T20:55:52;1.23;;;0.60;;
50533;SDS011;60631;49.236;8.398;2022-09-16T20:59:00;1.00;;;0.60;;
50533;SDS011;60631;49.236;8.398;2022-09-16T21:02:01;0.63;;;0.60;;
50533;SDS011;60631;49.236;8.398;2022-09-16T21:05:04;1.33;;;0.50;;
50533;SDS011;60631;49.236;8.398;2022-09-16T21:08:05;0.50;;;0.50;;
50533;SDS011;60631;49.236;8.398;2022-09-16T21:11:14;1.73;;;0.50;;
50533;SDS011;60631;49.236;8.398;2022-09-16T21:14:16;1.10;;;0.70;;
50533;SDS011;60631;49.236;8.398;2022-09-16T21:17:17;1.83;;;0.40;;
50533;SDS011;60631;49.236;8.398;2022-09-16T21:20:20;0.80;;;0.55;;
50533;SDS011;60631;49.236;8.398;2022-09-16T21:23:21;0.40;;;0.40;;
50533;SDS011;60631;49.236;8.398;2022-09-16T21:26:23;0.90;;;0.50;;